Liverpool, West Virginia
Current Conditions -  °F | °C
As of 4:53 AM on Sunday 23 Nov 2014 (Local Time) from KPKB Reporting Station
Overcast Overcast  
Wind Chill: 45°   Ceiling: 10000
Heat Index: 47°   Visibility: 10mi
Dew Point: 23°   Wind: 5mph
Humidity: 39%   Direction: 160°SSE
Pressure: 30.12"   Gusts: NA
Location:  38.9557°N, 81.5714°W
Report Text: KPKB 230953Z AUTO 16004KT 10SM OVC100 08/M05 A3012 RMK AO2 SLP200 T00831050
Loading
Personal Weather Stations






























Interactive Weather Map New forecast layout! Learn more

10-Day Weather Forecast

Advertisements
Track Severe Weather on mobile